sensor_id;sensor_type;location;lat;lon;timestamp;P1;durP1;ratioP1;P2;durP2;ratioP2
74512;SDS011;62992;52.052;8.550;2023-04-12T00:02:18;8.52;;;2.90;;
74512;SDS011;62992;52.052;8.550;2023-04-12T00:05:02;4.20;;;1.90;;
74512;SDS011;62992;52.052;8.550;2023-04-12T00:07:47;5.35;;;1.80;;
74512;SDS011;62992;52.052;8.550;2023-04-12T00:10:35;5.72;;;2.47;;
74512;SDS011;62992;52.052;8.550;2023-04-12T00:13:19;6.18;;;2.35;;
74512;SDS011;62992;52.052;8.550;2023-04-12T00:16:03;4.93;;;2.25;;
74512;SDS011;62992;52.052;8.550;2023-04-12T00:18:49;8.13;;;2.50;;
74512;SDS011;62992;52.052;8.550;2023-04-12T00:21:34;5.13;;;2.08;;
74512;SDS011;62992;52.052;8.550;2023-04-12T00:24:18;7.95;;;2.35;;
74512;SDS011;62992;52.052;8.550;2023-04-12T00:27:02;5.13;;;2.40;;
74512;SDS011;62992;52.052;8.550;2023-04-12T00:29:46;3.75;;;2.10;;
74512;SDS011;62992;52.052;8.550;2023-04-12T00:32:30;3.88;;;1.92;;
74512;SDS011;62992;52.052;8.550;2023-04-12T00:35:14;5.80;;;2.90;;
74512;SDS011;62992;52.052;8.550;2023-04-12T00:37:58;7.53;;;3.05;;
74512;SDS011;62992;52.052;8.550;2023-04-12T00:40:45;7.78;;;2.90;;
74512;SDS011;62992;52.052;8.550;2023-04-12T00:43:29;7.78;;;2.28;;
74512;SDS011;62992;52.052;8.550;2023-04-12T00:46:13;5.25;;;2.20;;
74512;SDS011;62992;52.052;8.550;2023-04-12T00:48:57;5.30;;;2.47;;
74512;SDS011;62992;52.052;8.550;2023-04-12T00:51:41;5.57;;;1.92;;
74512;SDS011;62992;52.052;8.550;2023-04-12T00:54:26;5.20;;;2.30;;
74512;SDS011;62992;52.052;8.550;2023-04-12T00:57:10;4.30;;;1.95;;
74512;SDS011;62992;52.052;8.550;2023-04-12T00:59:54;8.13;;;2.90;;
74512;SDS011;62992;52.052;8.550;2023-04-12T01:02:42;6.70;;;2.47;;
74512;SDS011;62992;52.052;8.550;2023-04-12T01:05:34;4.13;;;1.80;;
74512;SDS011;62992;52.052;8.550;2023-04-12T01:11:35;6.97;;;2.10;;
74512;SDS011;62992;52.052;8.550;2023-04-12T01:15:01;11.02;;;2.70;;
74512;SDS011;62992;52.052;8.550;2023-04-12T01:17:48;4.68;;;2.20;;
74512;SDS011;62992;52.052;8.550;2023-04-12T01:20:44;7.32;;;2.22;;
74512;SDS011;62992;52.052;8.550;2023-04-12T01:27:06;7.43;;;2.25;;
74512;SDS011;62992;52.052;8.550;2023-04-12T01:29:59;9.75;;;2.45;;
74512;SDS011;62992;52.052;8.550;2023-04-12T01:32:47;5.97;;;2.20;;
74512;SDS011;62992;52.052;8.550;2023-04-12T01:35:36;6.88;;;3.13;;
74512;SDS011;62992;52.052;8.550;2023-04-12T01:38:22;5.07;;;2.20;;
74512;SDS011;62992;52.052;8.550;2023-04-12T01:41:07;4.30;;;2.30;;
74512;SDS011;62992;52.052;8.550;2023-04-12T01:43:52;9.05;;;2.50;;
74512;SDS011;62992;52.052;8.550;2023-04-12T01:46:36;4.85;;;2.35;;
74512;SDS011;62992;52.052;8.550;2023-04-12T01:49:20;4.70;;;2.40;;
74512;SDS011;62992;52.052;8.550;2023-04-12T01:52:10;6.07;;;2.63;;
74512;SDS011;62992;52.052;8.550;2023-04-12T01:54:56;6.47;;;2.30;;
74512;SDS011;62992;52.052;8.550;2023-04-12T01:57:44;7.05;;;1.83;;
74512;SDS011;62992;52.052;8.550;2023-04-12T02:00:30;6.68;;;2.63;;
74512;SDS011;62992;52.052;8.550;2023-04-12T02:03:18;7.35;;;2.67;;
74512;SDS011;62992;52.052;8.550;2023-04-12T02:06:04;10.40;;;2.38;;
74512;SDS011;62992;52.052;8.550;2023-04-12T02:08:49;6.78;;;2.47;;
74512;SDS011;62992;52.052;8.550;2023-04-12T02:11:39;5.60;;;2.45;;
74512;SDS011;62992;52.052;8.550;2023-04-12T02:14:24;6.65;;;2.40;;
74512;SDS011;62992;52.052;8.550;2023-04-12T02:17:09;11.45;;;2.85;;
74512;SDS011;62992;52.052;8.550;2023-04-12T02:22:40;6.43;;;2.67;;
74512;SDS011;62992;52.052;8.550;2023-04-12T02:25:24;5.32;;;2.25;;
74512;SDS011;62992;52.052;8.550;2023-04-12T02:28:09;7.13;;;2.83;;
74512;SDS011;62992;52.052;8.550;2023-04-12T02:30:53;7.32;;;2.55;;
74512;SDS011;62992;52.052;8.550;2023-04-12T02:33:38;6.07;;;2.60;;
74512;SDS011;62992;52.052;8.550;2023-04-12T02:36:23;4.97;;;2.13;;
74512;SDS011;62992;52.052;8.550;2023-04-12T02:39:07;4.75;;;2.35;;
74512;SDS011;62992;52.052;8.550;2023-04-12T02:41:51;5.97;;;2.30;;
74512;SDS011;62992;52.052;8.550;2023-04-12T02:44:35;5.05;;;2.30;;
74512;SDS011;62992;52.052;8.550;2023-04-12T02:47:19;7.10;;;2.50;;
74512;SDS011;62992;52.052;8.550;2023-04-12T02:50:04;3.60;;;2.10;;
74512;SDS011;62992;52.052;8.550;2023-04-12T02:52:49;5.50;;;2.67;;
74512;SDS011;62992;52.052;8.550;2023-04-12T02:55:33;4.45;;;2.40;;
74512;SDS011;62992;52.052;8.550;2023-04-12T03:01:03;4.63;;;1.80;;
74512;SDS011;62992;52.052;8.550;2023-04-12T03:03:50;4.53;;;1.10;;
74512;SDS011;62992;52.052;8.550;2023-04-12T03:06:34;3.63;;;0.90;;
74512;SDS011;62992;52.052;8.550;2023-04-12T03:09:18;4.03;;;0.90;;
74512;SDS011;62992;52.052;8.550;2023-04-12T03:12:03;4.20;;;1.20;;
74512;SDS011;62992;52.052;8.550;2023-04-12T03:14:48;4.75;;;1.10;;
74512;SDS011;62992;52.052;8.550;2023-04-12T03:17:32;2.75;;;1.00;;
74512;SDS011;62992;52.052;8.550;2023-04-12T03:20:16;5.47;;;1.20;;
74512;SDS011;62992;52.052;8.550;2023-04-12T03:25:46;4.00;;;1.00;;
74512;SDS011;62992;52.052;8.550;2023-04-12T03:28:30;5.32;;;1.75;;
74512;SDS011;62992;52.052;8.550;2023-04-12T03:31:14;4.25;;;0.98;;
74512;SDS011;62992;52.052;8.550;2023-04-12T03:34:03;3.17;;;1.33;;
74512;SDS011;62992;52.052;8.550;2023-04-12T03:36:49;4.35;;;1.10;;
74512;SDS011;62992;52.052;8.550;2023-04-12T03:39:34;6.05;;;0.93;;
74512;SDS011;62992;52.052;8.550;2023-04-12T03:42:17;6.60;;;1.70;;
74512;SDS011;62992;52.052;8.550;2023-04-12T03:45:02;7.43;;;1.25;;
74512;SDS011;62992;52.052;8.550;2023-04-12T03:47:46;4.68;;;1.23;;
74512;SDS011;62992;52.052;8.550;2023-04-12T03:50:30;4.07;;;1.20;;
74512;SDS011;62992;52.052;8.550;2023-04-12T03:53:25;4.97;;;1.08;;
74512;SDS011;62992;52.052;8.550;2023-04-12T03:56:14;3.38;;;1.65;;
74512;SDS011;62992;52.052;8.550;2023-04-12T03:58:58;4.53;;;0.93;;
74512;SDS011;62992;52.052;8.550;2023-04-12T04:01:42;4.55;;;1.13;;
74512;SDS011;62992;52.052;8.550;2023-04-12T04:04:26;4.20;;;0.90;;
74512;SDS011;62992;52.052;8.550;2023-04-12T04:07:11;2.03;;;0.98;;
74512;SDS011;62992;52.052;8.550;2023-04-12T04:09:55;5.15;;;1.35;;
74512;SDS011;62992;52.052;8.550;2023-04-12T04:12:40;2.47;;;0.90;;
74512;SDS011;62992;52.052;8.550;2023-04-12T04:15:24;4.32;;;1.20;;
74512;SDS011;62992;52.052;8.550;2023-04-12T04:18:09;4.20;;;1.30;;
74512;SDS011;62992;52.052;8.550;2023-04-12T04:20:53;5.93;;;1.05;;
74512;SDS011;62992;52.052;8.550;2023-04-12T04:23:38;4.22;;;1.40;;
74512;SDS011;62992;52.052;8.550;2023-04-12T04:26:22;3.80;;;1.13;;
74512;SDS011;62992;52.052;8.550;2023-04-12T04:29:14;3.75;;;1.00;;
74512;SDS011;62992;52.052;8.550;2023-04-12T04:31:59;5.05;;;1.15;;
74512;SDS011;62992;52.052;8.550;2023-04-12T04:34:43;5.45;;;1.15;;
74512;SDS011;62992;52.052;8.550;2023-04-12T04:37:27;4.97;;;2.05;;
74512;SDS011;62992;52.052;8.550;2023-04-12T04:40:13;3.50;;;0.90;;
74512;SDS011;62992;52.052;8.550;2023-04-12T04:42:57;2.75;;;0.80;;
74512;SDS011;62992;52.052;8.550;2023-04-12T04:45:42;4.13;;;1.08;;
74512;SDS011;62992;52.052;8.550;2023-04-12T04:48:25;4.55;;;1.20;;
74512;SDS011;62992;52.052;8.550;2023-04-12T04:51:09;7.93;;;1.20;;
74512;SDS011;62992;52.052;8.550;2023-04-12T04:53:54;5.75;;;1.25;;
74512;SDS011;62992;52.052;8.550;2023-04-12T04:56:39;3.03;;;1.15;;
74512;SDS011;62992;52.052;8.550;2023-04-12T04:59:23;3.35;;;0.93;;
74512;SDS011;62992;52.052;8.550;2023-04-12T05:02:09;2.88;;;1.27;;
74512;SDS011;62992;52.052;8.550;2023-04-12T05:04:53;5.50;;;0.90;;
74512;SDS011;62992;52.052;8.550;2023-04-12T05:07:38;5.25;;;0.93;;
74512;SDS011;62992;52.052;8.550;2023-04-12T05:10:23;4.70;;;1.00;;
74512;SDS011;62992;52.052;8.550;2023-04-12T05:13:07;4.57;;;1.10;;
74512;SDS011;62992;52.052;8.550;2023-04-12T05:15:52;2.33;;;1.03;;
74512;SDS011;62992;52.052;8.550;2023-04-12T05:18:36;3.65;;;1.05;;
74512;SDS011;62992;52.052;8.550;2023-04-12T05:21:21;3.20;;;1.10;;
74512;SDS011;62992;52.052;8.550;2023-04-12T05:24:05;4.10;;;0.90;;
74512;SDS011;62992;52.052;8.550;2023-04-12T05:26:49;5.45;;;1.05;;
74512;SDS011;62992;52.052;8.550;2023-04-12T05:29:33;3.45;;;1.13;;
74512;SDS011;62992;52.052;8.550;2023-04-12T05:32:18;6.93;;;1.15;;
74512;SDS011;62992;52.052;8.550;2023-04-12T05:35:02;3.03;;;1.25;;
74512;SDS011;62992;52.052;8.550;2023-04-12T05:37:47;1.30;;;0.90;;
74512;SDS011;62992;52.052;8.550;2023-04-12T05:40:31;4.03;;;1.10;;
74512;SDS011;62992;52.052;8.550;2023-04-12T05:43:15;2.15;;;1.02;;
74512;SDS011;62992;52.052;8.550;2023-04-12T05:46:00;1.73;;;0.85;;
74512;SDS011;62992;52.052;8.550;2023-04-12T05:48:44;3.45;;;1.10;;
74512;SDS011;62992;52.052;8.550;2023-04-12T05:51:28;5.57;;;1.40;;
74512;SDS011;62992;52.052;8.550;2023-04-12T05:54:13;3.60;;;1.40;;
74512;SDS011;62992;52.052;8.550;2023-04-12T05:56:58;6.95;;;1.17;;
74512;SDS011;62992;52.052;8.550;2023-04-12T05:59:42;4.13;;;1.27;;
74512;SDS011;62992;52.052;8.550;2023-04-12T06:02:26;2.00;;;1.50;;
74512;SDS011;62992;52.052;8.550;2023-04-12T06:05:10;5.03;;;1.98;;
74512;SDS011;62992;52.052;8.550;2023-04-12T06:07:55;1.92;;;0.88;;
74512;SDS011;62992;52.052;8.550;2023-04-12T06:13:26;4.05;;;1.00;;
74512;SDS011;62992;52.052;8.550;2023-04-12T06:16:10;3.33;;;1.65;;
74512;SDS011;62992;52.052;8.550;2023-04-12T06:18:54;3.10;;;1.40;;
74512;SDS011;62992;52.052;8.550;2023-04-12T06:21:38;4.95;;;1.38;;
74512;SDS011;62992;52.052;8.550;2023-04-12T06:24:23;4.85;;;1.45;;
74512;SDS011;62992;52.052;8.550;2023-04-12T06:27:07;2.97;;;1.33;;
74512;SDS011;62992;52.052;8.550;2023-04-12T06:29:51;3.15;;;1.25;;
74512;SDS011;62992;52.052;8.550;2023-04-12T06:32:35;6.03;;;1.30;;
74512;SDS011;62992;52.052;8.550;2023-04-12T06:35:21;3.28;;;1.30;;
74512;SDS011;62992;52.052;8.550;2023-04-12T06:38:05;2.47;;;1.50;;
74512;SDS011;62992;52.052;8.550;2023-04-12T06:40:49;3.35;;;1.30;;
74512;SDS011;62992;52.052;8.550;2023-04-12T06:43:33;5.65;;;1.10;;
74512;SDS011;62992;52.052;8.550;2023-04-12T06:46:24;3.22;;;1.33;;
74512;SDS011;62992;52.052;8.550;2023-04-12T06:49:08;4.68;;;1.80;;
74512;SDS011;62992;52.052;8.550;2023-04-12T06:51:53;4.25;;;1.08;;
74512;SDS011;62992;52.052;8.550;2023-04-12T06:54:37;3.90;;;1.17;;
74512;SDS011;62992;52.052;8.550;2023-04-12T06:57:22;2.25;;;1.30;;
74512;SDS011;62992;52.052;8.550;2023-04-12T07:00:06;2.75;;;1.35;;
74512;SDS011;62992;52.052;8.550;2023-04-12T07:02:51;4.30;;;1.63;;
74512;SDS011;62992;52.052;8.550;2023-04-12T07:05:38;2.17;;;1.23;;
74512;SDS011;62992;52.052;8.550;2023-04-12T07:08:23;3.67;;;1.15;;
74512;SDS011;62992;52.052;8.550;2023-04-12T07:11:08;1.38;;;1.05;;
74512;SDS011;62992;52.052;8.550;2023-04-12T07:13:52;6.10;;;1.52;;
74512;SDS011;62992;52.052;8.550;2023-04-12T07:16:36;2.45;;;1.10;;
74512;SDS011;62992;52.052;8.550;2023-04-12T07:19:20;1.92;;;1.13;;
74512;SDS011;62992;52.052;8.550;2023-04-12T07:22:04;2.10;;;1.30;;
74512;SDS011;62992;52.052;8.550;2023-04-12T07:24:49;2.28;;;1.55;;
74512;SDS011;62992;52.052;8.550;2023-04-12T07:27:33;4.68;;;1.60;;
74512;SDS011;62992;52.052;8.550;2023-04-12T07:30:17;2.15;;;1.08;;
74512;SDS011;62992;52.052;8.550;2023-04-12T07:33:02;3.67;;;1.40;;
74512;SDS011;62992;52.052;8.550;2023-04-12T07:38:32;1.67;;;1.00;;
74512;SDS011;62992;52.052;8.550;2023-04-12T07:41:16;2.17;;;1.17;;
74512;SDS011;62992;52.052;8.550;2023-04-12T07:44:02;3.65;;;1.45;;
74512;SDS011;62992;52.052;8.550;2023-04-12T07:46:46;3.53;;;1.65;;
74512;SDS011;62992;52.052;8.550;2023-04-12T07:49:30;2.20;;;1.38;;
74512;SDS011;62992;52.052;8.550;2023-04-12T07:52:14;4.10;;;2.70;;
74512;SDS011;62992;52.052;8.550;2023-04-12T07:54:59;2.30;;;1.58;;
74512;SDS011;62992;52.052;8.550;2023-04-12T07:57:43;1.80;;;1.27;;
74512;SDS011;62992;52.052;8.550;2023-04-12T08:00:27;3.55;;;1.63;;
74512;SDS011;62992;52.052;8.550;2023-04-12T08:03:11;4.13;;;1.70;;
74512;SDS011;62992;52.052;8.550;2023-04-12T08:05:57;3.10;;;1.77;;
74512;SDS011;62992;52.052;8.550;2023-04-12T08:08:42;7.70;;;2.53;;
74512;SDS011;62992;52.052;8.550;2023-04-12T08:11:26;3.63;;;1.70;;
74512;SDS011;62992;52.052;8.550;2023-04-12T08:14:10;3.20;;;1.88;;
74512;SDS011;62992;52.052;8.550;2023-04-12T08:16:54;4.55;;;1.90;;
74512;SDS011;62992;52.052;8.550;2023-04-12T08:19:38;4.28;;;2.42;;
74512;SDS011;62992;52.052;8.550;2023-04-12T08:22:23;2.97;;;2.08;;
74512;SDS011;62992;52.052;8.550;2023-04-12T08:25:08;3.47;;;2.05;;
74512;SDS011;62992;52.052;8.550;2023-04-12T08:27:53;5.15;;;2.20;;
74512;SDS011;62992;52.052;8.550;2023-04-12T08:30:37;3.67;;;2.33;;
74512;SDS011;62992;52.052;8.550;2023-04-12T08:33:21;2.75;;;1.67;;
74512;SDS011;62992;52.052;8.550;2023-04-12T08:36:05;5.13;;;2.20;;
74512;SDS011;62992;52.052;8.550;2023-04-12T08:38:50;3.83;;;1.90;;
74512;SDS011;62992;52.052;8.550;2023-04-12T08:41:36;3.17;;;2.20;;
74512;SDS011;62992;52.052;8.550;2023-04-12T08:44:34;2.33;;;1.50;;
74512;SDS011;62992;52.052;8.550;2023-04-12T08:47:20;2.50;;;1.40;;
74512;SDS011;62992;52.052;8.550;2023-04-12T08:50:05;2.95;;;1.52;;
74512;SDS011;62992;52.052;8.550;2023-04-12T08:52:52;3.72;;;2.30;;
74512;SDS011;62992;52.052;8.550;2023-04-12T08:55:36;2.72;;;1.67;;
74512;SDS011;62992;52.052;8.550;2023-04-12T08:58:20;2.72;;;1.58;;
74512;SDS011;62992;52.052;8.550;2023-04-12T09:01:09;2.05;;;1.48;;
74512;SDS011;62992;52.052;8.550;2023-04-12T09:03:56;2.85;;;1.80;;
74512;SDS011;62992;52.052;8.550;2023-04-12T09:06:40;2.58;;;1.35;;
74512;SDS011;62992;52.052;8.550;2023-04-12T09:09:41;3.80;;;1.70;;
74512;SDS011;62992;52.052;8.550;2023-04-12T09:12:28;5.53;;;2.22;;
74512;SDS011;62992;52.052;8.550;2023-04-12T09:15:13;2.78;;;1.75;;
74512;SDS011;62992;52.052;8.550;2023-04-12T09:18:09;2.05;;;1.63;;
74512;SDS011;62992;52.052;8.550;2023-04-12T09:21:12;3.80;;;1.30;;
74512;SDS011;62992;52.052;8.550;2023-04-12T09:24:03;1.58;;;1.30;;
74512;SDS011;62992;52.052;8.550;2023-04-12T09:26:59;1.70;;;1.00;;
74512;SDS011;62992;52.052;8.550;2023-04-12T09:29:48;2.72;;;1.20;;
74512;SDS011;62992;52.052;8.550;2023-04-12T09:32:34;3.58;;;1.38;;
74512;SDS011;62992;52.052;8.550;2023-04-12T09:35:18;3.22;;;1.27;;
74512;SDS011;62992;52.052;8.550;2023-04-12T09:38:17;2.88;;;1.33;;
74512;SDS011;62992;52.052;8.550;2023-04-12T09:41:14;1.58;;;1.15;;
74512;SDS011;62992;52.052;8.550;2023-04-12T09:44:00;1.80;;;1.20;;
74512;SDS011;62992;52.052;8.550;2023-04-12T09:46:49;2.42;;;1.02;;
74512;SDS011;62992;52.052;8.550;2023-04-12T09:49:38;2.17;;;1.15;;
74512;SDS011;62992;52.052;8.550;2023-04-12T09:52:24;1.77;;;1.10;;
74512;SDS011;62992;52.052;8.550;2023-04-12T09:55:22;1.63;;;1.17;;
74512;SDS011;62992;52.052;8.550;2023-04-12T09:58:08;1.55;;;0.85;;
74512;SDS011;62992;52.052;8.550;2023-04-12T10:00:53;3.10;;;1.90;;
74512;SDS011;62992;52.052;8.550;2023-04-12T10:03:41;1.83;;;0.98;;
74512;SDS011;62992;52.052;8.550;2023-04-12T10:06:26;1.88;;;0.93;;
74512;SDS011;62992;52.052;8.550;2023-04-12T10:09:10;2.17;;;1.05;;
74512;SDS011;62992;52.052;8.550;2023-04-12T10:11:55;1.40;;;1.03;;
74512;SDS011;62992;52.052;8.550;2023-04-12T10:14:41;1.48;;;1.10;;
74512;SDS011;62992;52.052;8.550;2023-04-12T10:17:27;2.67;;;0.90;;
74512;SDS011;62992;52.052;8.550;2023-04-12T10:20:14;1.10;;;1.00;;
74512;SDS011;62992;52.052;8.550;2023-04-12T10:23:00;1.75;;;1.00;;
74512;SDS011;62992;52.052;8.550;2023-04-12T10:25:45;1.60;;;0.80;;
74512;SDS011;62992;52.052;8.550;2023-04-12T10:31:30;1.73;;;0.90;;
74512;SDS011;62992;52.052;8.550;2023-04-12T10:34:15;1.23;;;0.68;;
74512;SDS011;62992;52.052;8.550;2023-04-12T10:36:59;1.23;;;0.80;;
74512;SDS011;62992;52.052;8.550;2023-04-12T10:39:44;1.27;;;0.70;;
74512;SDS011;62992;52.052;8.550;2023-04-12T10:42:35;1.30;;;0.70;;
74512;SDS011;62992;52.052;8.550;2023-04-12T10:48:06;0.75;;;0.60;;
74512;SDS011;62992;52.052;8.550;2023-04-12T10:50:53;1.50;;;0.77;;
74512;SDS011;62992;52.052;8.550;2023-04-12T10:56:50;0.82;;;0.50;;
74512;SDS011;62992;52.052;8.550;2023-04-12T10:59:51;1.70;;;0.73;;
74512;SDS011;62992;52.052;8.550;2023-04-12T11:06:04;0.88;;;0.70;;
74512;SDS011;62992;52.052;8.550;2023-04-12T11:08:49;1.15;;;0.60;;
74512;SDS011;62992;52.052;8.550;2023-04-12T11:11:38;2.15;;;0.50;;
74512;SDS011;62992;52.052;8.550;2023-04-12T11:14:28;1.98;;;0.60;;
74512;SDS011;62992;52.052;8.550;2023-04-12T11:17:20;1.15;;;0.77;;
74512;SDS011;62992;52.052;8.550;2023-04-12T11:20:06;1.15;;;0.82;;
74512;SDS011;62992;52.052;8.550;2023-04-12T11:22:54;0.50;;;0.50;;
74512;SDS011;62992;52.052;8.550;2023-04-12T11:25:38;1.10;;;0.70;;
74512;SDS011;62992;52.052;8.550;2023-04-12T11:28:23;1.25;;;0.85;;
74512;SDS011;62992;52.052;8.550;2023-04-12T11:31:08;0.95;;;0.80;;
74512;SDS011;62992;52.052;8.550;2023-04-12T11:33:54;0.82;;;0.75;;
74512;SDS011;62992;52.052;8.550;2023-04-12T11:36:39;1.40;;;0.75;;
74512;SDS011;62992;52.052;8.550;2023-04-12T11:39:25;0.57;;;0.55;;
74512;SDS011;62992;52.052;8.550;2023-04-12T11:42:14;0.50;;;0.50;;
74512;SDS011;62992;52.052;8.550;2023-04-12T11:45:00;1.10;;;0.80;;
74512;SDS011;62992;52.052;8.550;2023-04-12T11:47:45;0.90;;;0.70;;
74512;SDS011;62992;52.052;8.550;2023-04-12T11:50:29;0.80;;;0.60;;
74512;SDS011;62992;52.052;8.550;2023-04-12T11:53:14;0.98;;;0.60;;
74512;SDS011;62992;52.052;8.550;2023-04-12T11:56:00;0.73;;;0.60;;
74512;SDS011;62992;52.052;8.550;2023-04-12T11:58:47;0.77;;;0.60;;
74512;SDS011;62992;52.052;8.550;2023-04-12T12:01:35;1.30;;;0.80;;
74512;SDS011;62992;52.052;8.550;2023-04-12T12:04:20;0.80;;;0.50;;
74512;SDS011;62992;52.052;8.550;2023-04-12T12:07:05;0.93;;;0.80;;
74512;SDS011;62992;52.052;8.550;2023-04-12T12:09:50;1.75;;;0.80;;
74512;SDS011;62992;52.052;8.550;2023-04-12T12:12:35;1.33;;;0.75;;
74512;SDS011;62992;52.052;8.550;2023-04-12T12:15:18;0.85;;;0.80;;
74512;SDS011;62992;52.052;8.550;2023-04-12T12:18:05;1.40;;;1.00;;
74512;SDS011;62992;52.052;8.550;2023-04-12T12:20:51;1.52;;;0.77;;
74512;SDS011;62992;52.052;8.550;2023-04-12T12:23:35;1.35;;;1.02;;
74512;SDS011;62992;52.052;8.550;2023-04-12T12:26:24;2.05;;;0.85;;
74512;SDS011;62992;52.052;8.550;2023-04-12T12:29:15;1.73;;;0.98;;
74512;SDS011;62992;52.052;8.550;2023-04-12T12:32:00;1.83;;;1.00;;
74512;SDS011;62992;52.052;8.550;2023-04-12T12:34:55;0.90;;;0.80;;
74512;SDS011;62992;52.052;8.550;2023-04-12T12:37:50;1.65;;;1.05;;
74512;SDS011;62992;52.052;8.550;2023-04-12T12:40:35;1.92;;;1.20;;
74512;SDS011;62992;52.052;8.550;2023-04-12T12:43:21;1.33;;;1.10;;
74512;SDS011;62992;52.052;8.550;2023-04-12T12:46:05;2.03;;;1.27;;
74512;SDS011;62992;52.052;8.550;2023-04-12T12:48:49;2.05;;;1.30;;
74512;SDS011;62992;52.052;8.550;2023-04-12T12:51:33;1.30;;;1.20;;
74512;SDS011;62992;52.052;8.550;2023-04-12T12:54:17;2.45;;;1.65;;
74512;SDS011;62992;52.052;8.550;2023-04-12T12:57:01;1.80;;;1.17;;
74512;SDS011;62992;52.052;8.550;2023-04-12T12:59:45;2.47;;;1.20;;
74512;SDS011;62992;52.052;8.550;2023-04-12T13:02:30;2.28;;;1.50;;
74512;SDS011;62992;52.052;8.550;2023-04-12T13:05:14;2.80;;;1.60;;
74512;SDS011;62992;52.052;8.550;2023-04-12T13:07:59;2.22;;;1.55;;
74512;SDS011;62992;52.052;8.550;2023-04-12T13:10:43;4.70;;;1.70;;
74512;SDS011;62992;52.052;8.550;2023-04-12T13:13:28;3.25;;;1.80;;
74512;SDS011;62992;52.052;8.550;2023-04-12T13:16:12;2.55;;;1.17;;
74512;SDS011;62992;52.052;8.550;2023-04-12T13:18:57;1.15;;;0.90;;
74512;SDS011;62992;52.052;8.550;2023-04-12T13:21:41;0.85;;;0.60;;
74512;SDS011;62992;52.052;8.550;2023-04-12T13:24:25;1.25;;;0.90;;
74512;SDS011;62992;52.052;8.550;2023-04-12T13:27:09;3.92;;;1.17;;
74512;SDS011;62992;52.052;8.550;2023-04-12T13:29:53;0.98;;;0.70;;
74512;SDS011;62992;52.052;8.550;2023-04-12T13:32:37;2.42;;;1.42;;
74512;SDS011;62992;52.052;8.550;2023-04-12T13:35:21;3.35;;;1.63;;
74512;SDS011;62992;52.052;8.550;2023-04-12T13:38:05;1.70;;;1.17;;
74512;SDS011;62992;52.052;8.550;2023-04-12T13:40:49;1.92;;;1.10;;
74512;SDS011;62992;52.052;8.550;2023-04-12T13:43:33;1.42;;;0.98;;
74512;SDS011;62992;52.052;8.550;2023-04-12T13:46:18;2.92;;;1.27;;
74512;SDS011;62992;52.052;8.550;2023-04-12T13:49:01;1.67;;;1.38;;
74512;SDS011;62992;52.052;8.550;2023-04-12T13:51:46;1.35;;;1.13;;
74512;SDS011;62992;52.052;8.550;2023-04-12T13:54:30;2.03;;;1.50;;
74512;SDS011;62992;52.052;8.550;2023-04-12T13:57:14;2.10;;;1.42;;
74512;SDS011;62992;52.052;8.550;2023-04-12T13:59:58;3.13;;;2.17;;
74512;SDS011;62992;52.052;8.550;2023-04-12T14:02:43;1.95;;;1.73;;
74512;SDS011;62992;52.052;8.550;2023-04-12T14:05:27;3.13;;;1.65;;
74512;SDS011;62992;52.052;8.550;2023-04-12T14:08:11;3.00;;;2.17;;
74512;SDS011;62992;52.052;8.550;2023-04-12T14:10:55;2.40;;;1.95;;
74512;SDS011;62992;52.052;8.550;2023-04-12T14:13:39;2.40;;;1.73;;
74512;SDS011;62992;52.052;8.550;2023-04-12T14:16:23;2.33;;;1.83;;
74512;SDS011;62992;52.052;8.550;2023-04-12T14:19:07;3.25;;;1.60;;
74512;SDS011;62992;52.052;8.550;2023-04-12T14:21:51;2.35;;;1.77;;
74512;SDS011;62992;52.052;8.550;2023-04-12T14:24:36;2.40;;;1.60;;
74512;SDS011;62992;52.052;8.550;2023-04-12T14:27:20;2.65;;;2.05;;
74512;SDS011;62992;52.052;8.550;2023-04-12T14:30:05;2.40;;;1.88;;
74512;SDS011;62992;52.052;8.550;2023-04-12T14:32:49;2.70;;;2.10;;
74512;SDS011;62992;52.052;8.550;2023-04-12T14:35:34;2.60;;;2.40;;
74512;SDS011;62992;52.052;8.550;2023-04-12T14:38:18;3.13;;;2.83;;
74512;SDS011;62992;52.052;8.550;2023-04-12T14:41:06;3.55;;;3.25;;
74512;SDS011;62992;52.052;8.550;2023-04-12T14:43:54;3.55;;;3.10;;
74512;SDS011;62992;52.052;8.550;2023-04-12T14:46:38;3.55;;;3.25;;
74512;SDS011;62992;52.052;8.550;2023-04-12T14:49:22;3.78;;;3.30;;
74512;SDS011;62992;52.052;8.550;2023-04-12T14:52:06;4.13;;;3.53;;
74512;SDS011;62992;52.052;8.550;2023-04-12T14:54:50;3.53;;;3.22;;
74512;SDS011;62992;52.052;8.550;2023-04-12T14:57:34;3.55;;;3.25;;
74512;SDS011;62992;52.052;8.550;2023-04-12T15:00:19;3.95;;;3.38;;
74512;SDS011;62992;52.052;8.550;2023-04-12T15:03:04;4.30;;;3.50;;
74512;SDS011;62992;52.052;8.550;2023-04-12T15:05:49;4.07;;;3.67;;
74512;SDS011;62992;52.052;8.550;2023-04-12T15:08:33;3.75;;;3.42;;
74512;SDS011;62992;52.052;8.550;2023-04-12T15:11:23;5.32;;;3.58;;
74512;SDS011;62992;52.052;8.550;2023-04-12T15:14:08;3.47;;;3.17;;
74512;SDS011;62992;52.052;8.550;2023-04-12T15:16:53;3.58;;;3.28;;
74512;SDS011;62992;52.052;8.550;2023-04-12T15:19:38;3.63;;;3.33;;
74512;SDS011;62992;52.052;8.550;2023-04-12T15:22:22;3.50;;;3.20;;
74512;SDS011;62992;52.052;8.550;2023-04-12T15:25:09;3.15;;;2.85;;
74512;SDS011;62992;52.052;8.550;2023-04-12T15:27:54;3.67;;;3.30;;
74512;SDS011;62992;52.052;8.550;2023-04-12T15:30:38;3.58;;;3.00;;
74512;SDS011;62992;52.052;8.550;2023-04-12T15:33:22;3.88;;;3.30;;
74512;SDS011;62992;52.052;8.550;2023-04-12T15:36:07;4.72;;;3.20;;
74512;SDS011;62992;52.052;8.550;2023-04-12T15:38:51;4.90;;;3.22;;
74512;SDS011;62992;52.052;8.550;2023-04-12T15:41:37;3.42;;;3.00;;
74512;SDS011;62992;52.052;8.550;2023-04-12T15:44:22;2.95;;;2.65;;
74512;SDS011;62992;52.052;8.550;2023-04-12T15:47:12;3.60;;;2.75;;
74512;SDS011;62992;52.052;8.550;2023-04-12T15:49:56;2.97;;;2.30;;
74512;SDS011;62992;52.052;8.550;2023-04-12T15:52:40;1.80;;;1.23;;
74512;SDS011;62992;52.052;8.550;2023-04-12T15:55:27;1.67;;;0.85;;
74512;SDS011;62992;52.052;8.550;2023-04-12T15:58:11;0.90;;;0.80;;
74512;SDS011;62992;52.052;8.550;2023-04-12T16:00:56;2.13;;;0.90;;
74512;SDS011;62992;52.052;8.550;2023-04-12T16:03:40;1.98;;;0.80;;
74512;SDS011;62992;52.052;8.550;2023-04-12T16:06:25;1.45;;;0.68;;
74512;SDS011;62992;52.052;8.550;2023-04-12T16:09:09;2.03;;;1.00;;
74512;SDS011;62992;52.052;8.550;2023-04-12T16:11:57;1.30;;;0.73;;
74512;SDS011;62992;52.052;8.550;2023-04-12T16:14:42;2.92;;;1.00;;
74512;SDS011;62992;52.052;8.550;2023-04-12T16:17:26;5.55;;;1.02;;
74512;SDS011;62992;52.052;8.550;2023-04-12T16:20:11;2.78;;;0.88;;
74512;SDS011;62992;52.052;8.550;2023-04-12T16:22:59;3.15;;;1.52;;
74512;SDS011;62992;52.052;8.550;2023-04-12T16:25:44;5.32;;;0.90;;
74512;SDS011;62992;52.052;8.550;2023-04-12T16:28:28;1.85;;;0.90;;
74512;SDS011;62992;52.052;8.550;2023-04-12T16:31:12;4.50;;;0.80;;
74512;SDS011;62992;52.052;8.550;2023-04-12T16:34:00;3.80;;;1.38;;
74512;SDS011;62992;52.052;8.550;2023-04-12T16:36:44;6.80;;;1.92;;
74512;SDS011;62992;52.052;8.550;2023-04-12T16:39:28;4.40;;;1.20;;
74512;SDS011;62992;52.052;8.550;2023-04-12T16:44:58;5.43;;;1.60;;
74512;SDS011;62992;52.052;8.550;2023-04-12T16:47:44;6.88;;;2.05;;
74512;SDS011;62992;52.052;8.550;2023-04-12T16:53:14;9.45;;;2.55;;
74512;SDS011;62992;52.052;8.550;2023-04-12T16:55:59;5.75;;;2.10;;
74512;SDS011;62992;52.052;8.550;2023-04-12T16:58:46;6.45;;;2.47;;
74512;SDS011;62992;52.052;8.550;2023-04-12T17:01:31;8.93;;;2.60;;
74512;SDS011;62992;52.052;8.550;2023-04-12T17:04:15;7.93;;;1.95;;
74512;SDS011;62992;52.052;8.550;2023-04-12T17:07:00;3.53;;;1.33;;
74512;SDS011;62992;52.052;8.550;2023-04-12T17:09:44;6.15;;;1.48;;
74512;SDS011;62992;52.052;8.550;2023-04-12T17:12:28;2.65;;;1.30;;
74512;SDS011;62992;52.052;8.550;2023-04-12T17:15:14;3.97;;;1.38;;
74512;SDS011;62992;52.052;8.550;2023-04-12T17:18:01;5.35;;;1.50;;